Time;durP1;ratioP1;P1;durP2;ratioP2;P2;SDS_P1;SDS_P2;PMS_P1;PMS_P2;Temp;Humidity;BMP_temperature;BMP_pressure;BME280_temperature;BME280_humidity;BME280_pressure;Samples;Min_cycle;Max_cycle;Signal;HPM_P1;HPM_P2
2022/04/10 00:00:04;;;;;;;4.23;2.73;;;2.80;99.90;;;;;;4890270;29;20302;-71
2022/04/10 00:02:31;;;;;;;4.37;2.90;;;2.80;99.90;;;;;;4891094;29;20200;-74
2022/04/10 00:04:58;;;;;;;5.87;3.23;;;2.80;99.90;;;;;;4895201;29;20578;-70
2022/04/10 00:07:25;;;;;;;4.53;2.67;;;2.90;99.90;;;;;;4896435;29;20215;-70
2022/04/10 00:09:51;;;;;;;4.83;3.00;;;2.80;99.90;;;;;;4893680;29;20275;-73
2022/04/10 00:12:18;;;;;;;4.90;2.80;;;2.70;99.90;;;;;;4895677;29;20212;-71
2022/04/10 00:14:45;;;;;;;4.13;2.77;;;2.70;99.90;;;;;;4896814;29;20772;-71
2022/04/10 00:17:12;;;;;;;6.20;3.50;;;2.60;99.90;;;;;;4887057;29;20204;-73
2022/04/10 00:19:39;;;;;;;3.93;2.87;;;2.50;99.90;;;;;;4899747;29;20222;-71
2022/04/10 00:22:06;;;;;;;8.10;3.50;;;2.50;99.90;;;;;;4881716;29;20208;-71
2022/04/10 00:24:33;;;;;;;4.60;3.40;;;2.50;99.90;;;;;;4892675;29;20252;-70
2022/04/10 00:27:00;;;;;;;4.93;3.27;;;2.50;99.90;;;;;;4893254;29;20287;-70
2022/04/10 00:29:26;;;;;;;3.97;3.30;;;2.40;99.90;;;;;;4889919;29;20230;-70
2022/04/10 00:31:53;;;;;;;4.87;3.37;;;2.40;99.90;;;;;;4898984;29;20237;-70
2022/04/10 00:34:20;;;;;;;4.37;3.50;;;2.40;99.90;;;;;;4898908;29;20223;-70
2022/04/10 00:36:47;;;;;;;5.33;3.30;;;2.30;99.90;;;;;;4900264;29;20211;-73
2022/04/10 00:39:13;;;;;;;6.10;3.30;;;2.30;99.90;;;;;;4893154;29;20286;-73
2022/04/10 00:41:40;;;;;;;5.90;3.33;;;2.20;99.90;;;;;;4909719;29;20202;-70
2022/04/10 00:44:10;;;;;;;9.00;3.50;;;2.20;99.90;;;;;;4895678;29;20258;-72
2022/04/10 00:46:38;;;;;;;3.73;3.03;;;2.20;99.90;;;;;;4894749;29;20206;-71
2022/04/10 00:49:05;;;;;;;5.60;3.40;;;2.10;99.90;;;;;;4899571;29;20226;-70
2022/04/10 00:51:42;;;;;;;4.57;3.13;;;2.10;99.90;;;;;;4898003;29;20266;-70
2022/04/10 00:54:12;;;;;;;5.00;3.67;;;2.00;99.90;;;;;;4920717;29;20266;-72
2022/04/10 00:56:39;;;;;;;8.67;3.70;;;2.00;99.90;;;;;;4895551;29;20198;-70
2022/04/10 00:59:06;;;;;;;7.77;3.70;;;2.10;99.90;;;;;;4896915;29;20531;-70
2022/04/10 01:01:35;;;;;;;4.83;3.27;;;2.00;99.90;;;;;;4895450;29;20214;-73
2022/04/10 01:04:22;;;;;;;6.07;3.77;;;2.00;99.90;;;;;;4897945;29;20294;-71
2022/04/10 01:06:57;;;;;;;9.37;4.17;;;1.90;99.90;;;;;;4902596;29;20360;-70
2022/04/10 01:09:24;;;;;;;5.43;3.77;;;1.90;99.90;;;;;;4895502;29;20225;-73
2022/04/10 01:11:54;;;;;;;6.00;3.80;;;1.90;99.90;;;;;;4894105;29;20218;-72
2022/04/10 01:14:21;;;;;;;5.30;3.63;;;1.90;99.90;;;;;;4895242;29;20264;-70
2022/04/10 01:16:48;;;;;;;5.70;3.70;;;1.90;99.90;;;;;;4898347;29;20676;-71
2022/04/10 01:19:19;;;;;;;5.37;3.50;;;1.90;99.90;;;;;;4893984;29;20233;-70
2022/04/10 01:21:46;;;;;;;6.57;3.67;;;1.90;99.90;;;;;;4893280;29;20206;-74
2022/04/10 01:24:14;;;;;;;6.67;3.70;;;1.80;99.90;;;;;;4898379;29;20255;-70
2022/04/10 01:26:42;;;;;;;6.47;4.10;;;1.80;99.90;;;;;;4911694;29;20207;-73
2022/04/10 01:29:10;;;;;;;7.33;3.57;;;1.80;99.90;;;;;;4896880;29;20226;-70
2022/04/10 01:31:44;;;;;;;6.80;3.77;;;1.70;99.90;;;;;;4894261;29;20626;-70
2022/04/10 01:34:15;;;;;;;6.63;3.77;;;1.70;99.90;;;;;;4895480;29;20246;-72
2022/04/10 01:36:44;;;;;;;8.10;3.63;;;1.60;99.90;;;;;;4894889;29;20211;-70
2022/04/10 01:39:12;;;;;;;6.80;4.00;;;1.60;99.90;;;;;;4890499;29;20229;-74
2022/04/10 01:41:38;;;;;;;5.80;4.03;;;1.60;99.90;;;;;;4889190;29;20216;-73
2022/04/10 01:44:07;;;;;;;6.40;3.90;;;1.60;99.90;;;;;;4896913;29;20209;-70
2022/04/10 01:46:35;;;;;;;7.00;3.53;;;1.60;99.90;;;;;;4895988;29;20202;-70
2022/04/10 01:49:04;;;;;;;6.60;4.10;;;1.60;99.90;;;;;;4894443;29;20219;-70
2022/04/10 01:51:32;;;;;;;6.20;3.60;;;1.50;99.90;;;;;;4898535;29;20862;-72
2022/04/10 01:53:59;;;;;;;5.00;3.70;;;1.50;99.90;;;;;;4898782;29;20200;-73
2022/04/10 01:56:26;;;;;;;8.40;3.60;;;1.60;99.90;;;;;;4898451;29;20834;-70
2022/04/10 01:58:52;;;;;;;6.97;4.10;;;1.70;99.90;;;;;;4888731;29;20222;-70
2022/04/10 02:01:21;;;;;;;7.03;4.30;;;1.70;99.90;;;;;;4897150;29;20212;-71
2022/04/10 02:03:50;;;;;;;7.07;3.73;;;1.90;99.90;;;;;;4891752;29;20655;-73
2022/04/10 02:06:18;;;;;;;6.50;4.07;;;2.00;99.90;;;;;;4892903;29;20231;-73
2022/04/10 02:08:45;;;;;;;9.20;4.20;;;1.90;99.90;;;;;;4893748;29;22200;-70
2022/04/10 02:11:14;;;;;;;6.43;4.30;;;1.80;99.90;;;;;;4898022;29;20303;-70
2022/04/10 02:13:42;;;;;;;6.77;4.23;;;1.90;99.90;;;;;;4900180;29;20214;-72
2022/04/10 02:16:16;;;;;;;5.90;3.90;;;1.80;99.90;;;;;;4894721;29;20587;-73
2022/04/10 02:18:43;;;;;;;8.60;4.33;;;1.60;99.90;;;;;;4894836;29;20228;-71
2022/04/10 02:21:10;;;;;;;6.67;3.90;;;1.60;99.90;;;;;;4898986;29;20198;-71
2022/04/10 02:23:37;;;;;;;6.93;4.03;;;1.50;99.90;;;;;;4898599;29;20202;-73
2022/04/10 02:26:04;;;;;;;6.20;3.67;;;1.50;99.90;;;;;;4894957;29;20214;-70
2022/04/10 02:28:31;;;;;;;5.87;3.77;;;1.40;99.90;;;;;;4900847;29;20307;-70
2022/04/10 02:30:57;;;;;;;5.77;3.93;;;1.30;99.90;;;;;;4898073;29;20274;-71
2022/04/10 02:33:24;;;;;;;7.07;3.73;;;1.30;99.90;;;;;;4894354;29;20754;-72
2022/04/10 02:35:51;;;;;;;6.60;3.87;;;1.30;99.90;;;;;;4892504;29;20708;-70
2022/04/10 02:38:18;;;;;;;5.50;3.83;;;1.20;99.90;;;;;;4892451;29;20229;-70
2022/04/10 02:40:44;;;;;;;5.83;4.20;;;1.20;99.90;;;;;;4895832;29;20225;-73
2022/04/10 02:43:13;;;;;;;5.90;4.47;;;1.10;99.90;;;;;;4894078;29;20232;-70
2022/04/10 02:45:41;;;;;;;7.47;4.33;;;1.10;99.90;;;;;;4899211;29;20288;-71
2022/04/10 02:48:08;;;;;;;8.80;4.80;;;1.10;99.90;;;;;;4899191;29;20207;-70
2022/04/10 02:50:39;;;;;;;7.77;3.83;;;1.20;99.90;;;;;;4899854;29;20693;-70
2022/04/10 02:53:06;;;;;;;8.20;4.07;;;1.10;99.90;;;;;;4897555;29;20201;-70
2022/04/10 02:55:34;;;;;;;5.47;4.10;;;1.10;99.90;;;;;;4896997;29;20732;-72
2022/04/10 02:58:00;;;;;;;6.67;4.13;;;1.10;99.90;;;;;;4897242;29;20209;-72
2022/04/10 03:00:27;;;;;;;6.57;4.27;;;1.00;99.90;;;;;;4891876;29;20200;-70
2022/04/10 03:02:54;;;;;;;6.33;4.10;;;1.00;99.90;;;;;;4894257;29;20197;-70
2022/04/10 03:05:20;;;;;;;7.27;4.20;;;1.00;99.90;;;;;;4899941;29;20213;-70
2022/04/10 03:07:51;;;;;;;8.43;4.20;;;0.90;99.90;;;;;;4893314;29;20289;-71
2022/04/10 03:10:18;;;;;;;7.03;3.90;;;0.90;99.90;;;;;;4895026;29;20209;-71
2022/04/10 03:12:45;;;;;;;8.37;4.87;;;0.90;99.90;;;;;;4892478;29;20665;-70
2022/04/10 03:15:11;;;;;;;5.73;4.27;;;0.80;99.90;;;;;;4894833;29;20224;-71
2022/04/10 03:17:38;;;;;;;7.67;4.03;;;0.80;99.90;;;;;;4899936;29;20202;-71
2022/04/10 03:20:06;;;;;;;6.57;3.63;;;0.90;99.90;;;;;;4897156;29;20250;-70
2022/04/10 03:22:33;;;;;;;7.00;4.03;;;0.80;99.90;;;;;;4898960;29;20209;-71
2022/04/10 03:24:59;;;;;;;5.57;3.70;;;0.80;99.90;;;;;;4901463;29;20211;-70
2022/04/10 03:27:26;;;;;;;7.17;4.57;;;0.70;99.90;;;;;;4910744;29;20220;-71
2022/04/10 03:29:53;;;;;;;7.90;4.70;;;0.70;99.90;;;;;;4901004;29;20224;-71
2022/04/10 03:32:20;;;;;;;8.73;4.30;;;0.70;99.90;;;;;;4902859;29;20483;-71
2022/04/10 03:34:46;;;;;;;6.00;4.27;;;0.70;99.90;;;;;;4895791;29;20208;-71
2022/04/10 03:37:13;;;;;;;7.30;4.83;;;0.70;99.90;;;;;;4900306;29;20196;-71
2022/04/10 03:39:40;;;;;;;5.50;4.23;;;0.60;99.90;;;;;;4903482;29;20285;-70
2022/04/10 03:42:07;;;;;;;10.70;4.13;;;0.60;99.90;;;;;;4930319;29;20208;-71
2022/04/10 03:44:33;;;;;;;9.67;3.80;;;0.60;99.90;;;;;;4898999;29;20607;-71
2022/04/10 03:47:00;;;;;;;7.07;4.40;;;0.50;99.90;;;;;;4899284;29;20624;-74
2022/04/10 03:49:27;;;;;;;6.73;3.80;;;0.60;99.90;;;;;;4905013;29;20231;-70
2022/04/10 03:51:54;;;;;;;6.90;4.23;;;0.60;99.90;;;;;;4896296;29;20203;-73
2022/04/10 03:54:20;;;;;;;5.57;4.00;;;0.60;99.90;;;;;;4901543;29;20216;-70
2022/04/10 03:56:47;;;;;;;8.40;4.40;;;0.50;99.90;;;;;;4896928;29;20591;-70
2022/04/10 03:59:13;;;;;;;6.97;4.03;;;0.50;99.90;;;;;;4900368;29;20211;-70
2022/04/10 04:01:40;;;;;;;5.10;3.60;;;0.60;99.90;;;;;;4896102;29;20204;-73
2022/04/10 04:04:07;;;;;;;6.67;4.40;;;0.50;99.90;;;;;;4900625;29;20204;-70
2022/04/10 04:06:33;;;;;;;6.53;4.17;;;0.50;99.90;;;;;;4894042;29;20200;-70
2022/04/10 04:09:00;;;;;;;8.13;3.97;;;0.50;99.90;;;;;;4898675;29;20224;-70
2022/04/10 04:11:27;;;;;;;8.00;4.03;;;0.40;99.90;;;;;;4896695;29;20716;-74
2022/04/10 04:13:55;;;;;;;5.57;3.93;;;0.30;99.90;;;;;;4899171;29;20200;-70
2022/04/10 04:16:21;;;;;;;7.03;4.27;;;0.30;99.90;;;;;;4895791;29;20730;-70
2022/04/10 04:18:49;;;;;;;6.27;3.80;;;0.30;99.90;;;;;;4901268;29;20227;-70
2022/04/10 04:21:15;;;;;;;8.30;4.57;;;0.30;99.90;;;;;;4896129;29;20201;-70
2022/04/10 04:23:42;;;;;;;8.57;4.47;;;0.20;99.90;;;;;;4900226;29;20196;-70
2022/04/10 04:26:10;;;;;;;7.03;3.67;;;0.20;99.90;;;;;;4924755;29;20200;-69
2022/04/10 04:28:36;;;;;;;8.10;4.30;;;0.30;99.90;;;;;;4923306;29;20775;-69
2022/04/10 04:31:03;;;;;;;8.93;3.97;;;0.20;99.90;;;;;;4899762;29;20201;-70
2022/04/10 04:33:30;;;;;;;7.03;4.20;;;0.20;99.90;;;;;;4900059;29;20204;-69
2022/04/10 04:35:57;;;;;;;5.70;4.23;;;0.20;99.90;;;;;;4895798;29;20281;-70
2022/04/10 04:38:23;;;;;;;9.30;4.43;;;0.30;99.90;;;;;;4898393;29;20291;-70
2022/04/10 04:40:50;;;;;;;8.20;4.40;;;0.20;99.90;;;;;;4900214;29;20561;-71
2022/04/10 04:43:17;;;;;;;6.30;3.70;;;0.20;99.90;;;;;;4898761;29;20663;-70
2022/04/10 04:45:43;;;;;;;8.20;4.17;;;0.20;99.90;;;;;;4895106;29;20256;-70
2022/04/10 04:48:10;;;;;;;7.57;4.07;;;0.10;99.90;;;;;;4897077;29;22251;-70
2022/04/10 04:50:37;;;;;;;8.00;4.90;;;0.10;99.90;;;;;;4897573;29;20208;-72
2022/04/10 04:53:03;;;;;;;8.30;5.03;;;0.10;99.90;;;;;;4899576;29;20216;-69
2022/04/10 04:55:30;;;;;;;6.10;3.97;;;0.20;99.90;;;;;;4898429;29;20223;-72
2022/04/10 04:57:57;;;;;;;10.40;5.20;;;0.30;99.90;;;;;;4895830;29;20635;-71
2022/04/10 05:00:23;;;;;;;5.93;4.20;;;0.40;99.90;;;;;;4863327;29;1056520;-70
2022/04/10 05:02:50;;;;;;;6.27;4.33;;;0.50;99.90;;;;;;4899549;29;20256;-71
2022/04/10 05:05:17;;;;;;;6.10;4.07;;;0.70;99.90;;;;;;4896519;29;20652;-68
2022/04/10 05:07:44;;;;;;;8.10;4.40;;;0.80;99.90;;;;;;4899839;29;20684;-70
2022/04/10 05:10:10;;;;;;;7.90;4.83;;;1.00;99.90;;;;;;4895175;29;20301;-71
2022/04/10 05:12:37;;;;;;;8.77;5.10;;;1.30;99.90;;;;;;4896780;29;20201;-68
2022/04/10 05:15:07;;;;;;;9.30;5.53;;;1.50;99.90;;;;;;4903319;29;20208;-66
2022/04/10 05:17:35;;;;;;;13.17;6.17;;;1.70;99.90;;;;;;4897872;29;20748;-71
2022/04/10 05:20:04;;;;;;;9.30;6.10;;;1.90;99.90;;;;;;4894695;29;20222;-68
2022/04/10 05:22:30;;;;;;;10.30;5.97;;;2.00;99.90;;;;;;4895646;29;20206;-72
2022/04/10 05:24:59;;;;;;;10.50;6.00;;;2.20;99.90;;;;;;4900045;29;20248;-73
2022/04/10 05:27:25;;;;;;;9.87;5.57;;;2.40;99.90;;;;;;4898696;29;20211;-71
2022/04/10 05:29:52;;;;;;;9.70;5.40;;;2.40;99.90;;;;;;4898203;29;20215;-71
2022/04/10 05:32:19;;;;;;;10.53;5.60;;;2.50;99.90;;;;;;4898270;29;20247;-73
2022/04/10 05:34:46;;;;;;;7.20;5.30;;;2.50;99.90;;;;;;4895558;29;20211;-69
2022/04/10 05:37:13;;;;;;;9.80;5.13;;;2.60;99.90;;;;;;4897664;29;20228;-69
2022/04/10 05:39:39;;;;;;;7.37;4.97;;;2.70;99.90;;;;;;4898972;29;20219;-70
2022/04/10 05:42:07;;;;;;;8.00;5.33;;;2.80;99.90;;;;;;4895253;29;20208;-69
2022/04/10 05:44:34;;;;;;;11.70;5.07;;;2.90;99.90;;;;;;4896421;29;20608;-70
2022/04/10 05:47:01;;;;;;;9.23;5.30;;;2.90;99.90;;;;;;4894156;29;20212;-69
2022/04/10 05:49:28;;;;;;;10.37;4.80;;;3.10;99.90;;;;;;4902996;29;20220;-68
2022/04/10 05:51:55;;;;;;;7.50;4.80;;;3.10;99.90;;;;;;4896938;29;20270;-69
2022/04/10 05:54:22;;;;;;;7.60;4.57;;;3.20;99.90;;;;;;4917943;29;20204;-72
2022/04/10 05:56:48;;;;;;;7.40;4.73;;;3.20;99.90;;;;;;4899458;29;20224;-70
2022/04/10 05:59:15;;;;;;;7.80;4.97;;;3.30;99.90;;;;;;4896068;29;20223;-69
2022/04/10 06:01:42;;;;;;;7.90;5.03;;;3.40;99.90;;;;;;4895296;29;20224;-69
2022/04/10 06:04:08;;;;;;;9.67;5.00;;;3.40;99.90;;;;;;4898301;29;20196;-71
2022/04/10 06:06:35;;;;;;;8.47;5.23;;;3.40;99.90;;;;;;4897533;29;20204;-70
2022/04/10 06:09:02;;;;;;;9.13;5.60;;;3.60;99.90;;;;;;4896884;29;20299;-71
2022/04/10 06:11:28;;;;;;;9.97;5.23;;;3.70;99.90;;;;;;4904264;29;20201;-72
2022/04/10 06:13:55;;;;;;;6.07;4.67;;;3.80;99.90;;;;;;4895442;29;20208;-73
2022/04/10 06:16:21;;;;;;;8.00;4.80;;;3.80;99.90;;;;;;4895786;29;20228;-69
2022/04/10 06:18:48;;;;;;;7.43;4.50;;;3.90;99.90;;;;;;4897331;29;20222;-70
2022/04/10 06:21:15;;;;;;;7.50;5.27;;;4.10;99.90;;;;;;4898588;29;20231;-69
2022/04/10 06:23:41;;;;;;;7.73;4.60;;;4.30;99.90;;;;;;4907053;29;20212;-73
2022/04/10 06:26:08;;;;;;;9.27;5.13;;;4.40;99.90;;;;;;4894836;29;20218;-70
2022/04/10 06:28:35;;;;;;;7.87;4.90;;;4.60;99.90;;;;;;4894913;29;20286;-72
2022/04/10 06:31:01;;;;;;;7.33;4.57;;;4.80;99.90;;;;;;4894670;29;20210;-69
2022/04/10 06:33:28;;;;;;;7.90;4.50;;;5.00;99.90;;;;;;4900017;29;20218;-70
2022/04/10 06:35:55;;;;;;;7.17;4.63;;;5.10;99.90;;;;;;4894217;29;20222;-72
2022/04/10 06:38:21;;;;;;;5.83;4.17;;;5.30;99.90;;;;;;4893792;29;20221;-70
2022/04/10 06:40:51;;;;;;;5.13;3.90;;;5.50;99.90;;;;;;4900076;29;20288;-70
2022/04/10 06:43:19;;;;;;;6.23;3.93;;;5.70;99.90;;;;;;4894967;29;20278;-69
2022/04/10 06:45:47;;;;;;;7.03;4.00;;;5.90;99.90;;;;;;4895700;29;20210;-73
2022/04/10 06:48:15;;;;;;;4.90;3.50;;;5.90;99.90;;;;;;4900455;29;20279;-72
2022/04/10 06:50:41;;;;;;;7.57;3.57;;;6.00;99.90;;;;;;4896064;29;20653;-69
2022/04/10 06:53:09;;;;;;;6.97;3.97;;;6.10;99.90;;;;;;4898883;29;20207;-68
2022/04/10 06:55:36;;;;;;;6.47;3.63;;;6.10;99.90;;;;;;4896305;29;20206;-68
2022/04/10 06:58:03;;;;;;;4.60;3.47;;;6.20;99.90;;;;;;4896429;29;20201;-70
2022/04/10 07:00:30;;;;;;;6.60;3.70;;;6.10;99.90;;;;;;4897444;29;20690;-72
2022/04/10 07:02:57;;;;;;;4.93;3.60;;;6.30;99.90;;;;;;4893437;29;20728;-69
2022/04/10 07:05:24;;;;;;;4.23;3.30;;;6.60;99.90;;;;;;4900809;29;20223;-71
2022/04/10 07:07:50;;;;;;;4.70;3.27;;;6.80;99.90;;;;;;4891753;29;20627;-70
2022/04/10 07:10:17;;;;;;;5.20;3.60;;;6.80;99.90;;;;;;4896844;29;20700;-70
2022/04/10 07:12:44;;;;;;;6.20;3.50;;;7.00;99.90;;;;;;4894350;29;20234;-70
2022/04/10 07:15:10;;;;;;;5.53;3.63;;;6.90;99.90;;;;;;4891717;29;20669;-71
2022/04/10 07:17:37;;;;;;;6.63;3.73;;;7.20;99.90;;;;;;4892051;29;20267;-70
2022/04/10 07:20:04;;;;;;;8.30;3.80;;;7.20;99.90;;;;;;4892001;29;20225;-67
2022/04/10 07:25:17;;;;;;;7.30;4.03;;;6.90;99.90;;;;;;4887269;29;20235;-70
2022/04/10 07:27:44;;;;;;;4.33;3.33;;;6.90;99.90;;;;;;4922663;29;20744;-70
2022/04/10 07:30:11;;;;;;;6.53;3.93;;;6.90;99.90;;;;;;4890759;29;20228;-73
2022/04/10 07:32:39;;;;;;;5.97;4.00;;;6.90;99.90;;;;;;4890993;29;20566;-70
2022/04/10 07:35:06;;;;;;;7.67;3.70;;;7.00;99.90;;;;;;4906848;29;20204;-70
2022/04/10 07:37:33;;;;;;;5.97;3.40;;;7.10;99.90;;;;;;4893109;29;20712;-72
2022/04/10 07:39:59;;;;;;;5.07;3.13;;;7.40;99.90;;;;;;4892020;29;20228;-70
2022/04/10 07:42:29;;;;;;;5.63;3.47;;;7.60;99.90;;;;;;4893923;29;20203;-72
2022/04/10 07:45:06;;;;;;;5.33;3.27;;;7.50;99.90;;;;;;4892791;29;20410;-70
2022/04/10 07:47:32;;;;;;;5.37;3.40;;;7.70;99.90;;;;;;4891265;29;20318;-70
2022/04/10 07:49:59;;;;;;;4.87;3.43;;;7.80;99.90;;;;;;4893970;29;20232;-70
2022/04/10 07:52:26;;;;;;;4.70;3.10;;;7.90;99.90;;;;;;4893876;29;20741;-70
2022/04/10 07:54:53;;;;;;;7.00;3.80;;;8.00;99.90;;;;;;4893591;29;20585;-71
2022/04/10 07:57:20;;;;;;;7.27;3.60;;;8.00;99.90;;;;;;4892542;29;20226;-72
2022/04/10 07:59:47;;;;;;;7.37;3.13;;;8.00;99.90;;;;;;4892973;29;20230;-73
2022/04/10 08:02:13;;;;;;;6.83;3.63;;;8.20;99.90;;;;;;4894369;29;20204;-71
2022/04/10 08:04:40;;;;;;;6.10;3.50;;;8.30;99.90;;;;;;4895697;29;20199;-73
2022/04/10 08:07:08;;;;;;;5.10;3.30;;;8.40;99.90;;;;;;4899568;29;20209;-69
2022/04/10 08:09:34;;;;;;;6.63;3.57;;;8.60;99.90;;;;;;4895916;29;20231;-72
2022/04/10 08:12:01;;;;;;;5.80;3.20;;;8.50;99.90;;;;;;4897790;29;20250;-70
2022/04/10 08:14:28;;;;;;;7.00;3.30;;;8.60;99.90;;;;;;4895913;29;20738;-70
2022/04/10 08:16:55;;;;;;;8.53;3.30;;;8.60;99.90;;;;;;4895017;29;20620;-70
2022/04/10 08:19:21;;;;;;;4.83;3.20;;;8.60;99.90;;;;;;4894337;29;20242;-69
2022/04/10 08:21:48;;;;;;;6.50;3.20;;;8.80;99.90;;;;;;4899242;29;20206;-72
2022/04/10 08:24:15;;;;;;;6.20;3.60;;;8.90;99.90;;;;;;4896878;29;20778;-69
2022/04/10 08:26:41;;;;;;;6.43;3.20;;;8.80;99.90;;;;;;4896104;29;20537;-70
2022/04/10 08:29:08;;;;;;;4.43;3.40;;;8.90;99.90;;;;;;4902067;29;20239;-71
2022/04/10 08:31:34;;;;;;;6.10;3.43;;;9.00;99.90;;;;;;4897574;29;20225;-70
2022/04/10 08:34:01;;;;;;;6.63;3.60;;;9.20;99.90;;;;;;4893942;29;20208;-70
2022/04/10 08:36:28;;;;;;;4.67;3.23;;;9.20;99.90;;;;;;4895580;29;20239;-70
2022/04/10 08:38:56;;;;;;;7.87;3.03;;;9.30;99.90;;;;;;4893356;29;20708;-72
2022/04/10 08:41:31;;;;;;;6.27;3.40;;;9.40;99.90;;;;;;4899669;29;20200;-72
2022/04/10 08:44:02;;;;;;;6.67;3.40;;;9.00;99.90;;;;;;4900020;29;20215;-70
2022/04/10 08:46:30;;;;;;;7.47;3.30;;;9.30;99.90;;;;;;4892898;29;20295;-69
2022/04/10 08:48:58;;;;;;;6.93;3.07;;;9.20;99.90;;;;;;4895277;29;20280;-69
2022/04/10 08:51:26;;;;;;;4.23;3.20;;;9.50;99.90;;;;;;4897459;29;20213;-71
2022/04/10 08:53:54;;;;;;;5.93;4.10;;;9.50;99.90;;;;;;4890197;29;20213;-72
2022/04/10 08:56:22;;;;;;;6.47;3.20;;;9.10;99.90;;;;;;4891612;29;20205;-71
2022/04/10 08:58:51;;;;;;;5.53;3.27;;;9.20;99.90;;;;;;4895366;29;20601;-69
2022/04/10 09:01:19;;;;;;;6.40;3.40;;;9.40;99.90;;;;;;4896124;29;20699;-72
2022/04/10 09:03:47;;;;;;;5.43;3.40;;;9.10;99.90;;;;;;4893663;29;20201;-69
2022/04/10 09:06:14;;;;;;;4.93;3.30;;;9.20;99.90;;;;;;4888367;29;20264;-72
2022/04/10 09:08:43;;;;;;;6.03;3.13;;;9.30;99.90;;;;;;4891938;29;20759;-69
2022/04/10 09:11:11;;;;;;;5.43;2.90;;;9.30;99.90;;;;;;4889374;29;20203;-70
2022/04/10 09:13:49;;;;;;;8.97;3.13;;;9.20;99.90;;;;;;4891559;29;20212;-71
2022/04/10 09:16:22;;;;;;;6.33;2.87;;;9.30;99.90;;;;;;4886055;29;20201;-70
2022/04/10 09:19:01;;;;;;;5.73;2.93;;;9.10;99.90;;;;;;4886413;29;20745;-72
2022/04/10 09:21:30;;;;;;;3.97;2.70;;;9.20;99.90;;;;;;4884087;29;20226;-71
2022/04/10 09:24:10;;;;;;;4.77;2.60;;;9.00;99.90;;;;;;4896528;29;20217;-72
2022/04/10 09:26:48;;;;;;;5.37;2.97;;;9.20;99.90;;;;;;4878960;29;20197;-71
2022/04/10 09:29:20;;;;;;;3.53;2.37;;;9.40;99.90;;;;;;4886503;29;20228;-71
2022/04/10 09:31:47;;;;;;;5.70;2.20;;;9.50;99.90;;;;;;4894749;29;20215;-73
2022/04/10 09:34:16;;;;;;;3.53;2.10;;;9.50;99.90;;;;;;4894418;29;20196;-73
2022/04/10 09:37:04;;;;;;;4.00;2.40;;;9.50;99.90;;;;;;4887663;29;20222;-71
2022/04/10 09:39:32;;;;;;;8.23;2.93;;;9.60;99.90;;;;;;4895853;29;20271;-72
2022/04/10 09:42:10;;;;;;;4.07;2.73;;;9.70;99.90;;;;;;4895618;29;20738;-74
2022/04/10 09:44:57;;;;;;;4.20;2.40;;;9.60;99.90;;;;;;4894122;29;20199;-70
2022/04/10 09:47:25;;;;;;;4.60;2.57;;;9.50;99.90;;;;;;4893263;29;20204;-73
2022/04/10 09:49:53;;;;;;;6.70;2.63;;;9.40;99.90;;;;;;4897651;29;20224;-73
2022/04/10 09:52:20;;;;;;;3.80;2.67;;;9.60;99.90;;;;;;4887512;29;20216;-73
2022/04/10 09:54:50;;;;;;;5.33;2.73;;;9.70;99.90;;;;;;4889437;29;20212;-73
2022/04/10 09:57:19;;;;;;;3.53;2.50;;;10.10;99.90;;;;;;4893951;29;20384;-71
2022/04/10 09:59:48;;;;;;;6.93;2.50;;;10.50;99.90;;;;;;4896698;29;20298;-71
2022/04/10 10:02:19;;;;;;;2.87;2.40;;;10.60;99.90;;;;;;4894284;29;20210;-73
2022/04/10 10:04:47;;;;;;;3.60;2.43;;;10.40;99.90;;;;;;4899619;29;20188;-72
2022/04/10 10:07:16;;;;;;;4.57;2.40;;;10.40;99.90;;;;;;4894458;29;20208;-71
2022/04/10 10:09:43;;;;;;;4.93;2.47;;;10.50;99.90;;;;;;4893301;29;20311;-73
2022/04/10 10:12:11;;;;;;;3.40;2.20;;;10.70;99.90;;;;;;4892589;29;20201;-72
2022/04/10 10:14:39;;;;;;;5.20;3.07;;;10.80;99.90;;;;;;4891611;29;20215;-72
2022/04/10 10:17:07;;;;;;;6.47;3.20;;;10.60;99.90;;;;;;4908861;29;20228;-70
2022/04/10 10:19:37;;;;;;;3.70;2.20;;;10.60;99.90;;;;;;4891959;29;20224;-71
2022/04/10 10:22:12;;;;;;;3.77;2.17;;;10.80;99.90;;;;;;4894820;29;20200;-70
2022/04/10 10:24:52;;;;;;;6.03;2.60;;;11.10;99.90;;;;;;4894023;29;20217;-71
2022/04/10 10:28:13;;;;;;;5.77;2.27;;;11.20;99.90;;;;;;4892763;29;20217;-71
2022/04/10 10:30:39;;;;;;;4.90;2.47;;;11.50;99.90;;;;;;4868217;29;20558;-69
2022/04/10 10:33:17;;;;;;;6.43;3.07;;;11.60;99.90;;;;;;4887137;29;20218;-73
2022/04/10 10:35:48;;;;;;;3.67;2.27;;;11.40;99.90;;;;;;4892234;29;20208;-70
2022/04/10 10:38:20;;;;;;;8.60;4.73;;;11.30;99.90;;;;;;4891647;29;20223;-70
2022/04/10 10:40:48;;;;;;;4.50;2.67;;;11.60;99.90;;;;;;4892058;29;20598;-71
2022/04/10 10:43:33;;;;;;;3.93;2.53;;;11.70;99.90;;;;;;4886958;29;20203;-70
2022/04/10 10:45:59;;;;;;;5.27;2.30;;;11.80;99.90;;;;;;4887834;29;20213;-67
2022/04/10 10:48:47;;;;;;;4.90;2.37;;;12.10;99.90;;;;;;4892895;29;20227;-71
2022/04/10 10:51:15;;;;;;;2.97;2.10;;;12.40;99.90;;;;;;4889915;29;20328;-77
2022/04/10 10:53:57;;;;;;;5.43;2.37;;;12.80;99.90;;;;;;4890334;29;20208;-79
2022/04/10 10:56:32;;;;;;;5.13;2.80;;;12.40;99.90;;;;;;4890327;29;20745;-76
2022/04/10 10:59:36;;;;;;;2.47;2.10;;;12.20;99.90;;;;;;4887773;29;20295;-75
2022/04/10 11:02:06;;;;;;;3.87;2.20;;;12.30;99.90;;;;;;4885845;29;20200;-78
2022/04/10 11:04:53;;;;;;;5.37;2.33;;;12.50;99.90;;;;;;4888917;29;20397;-80
2022/04/10 11:07:20;;;;;;;3.27;2.37;;;12.90;99.90;;;;;;4888467;29;20263;-80
2022/04/10 11:09:48;;;;;;;3.80;2.40;;;13.00;99.90;;;;;;4891212;29;20222;-79
2022/04/10 11:12:18;;;;;;;4.80;2.60;;;13.00;99.90;;;;;;4886057;29;20211;-81
2022/04/10 11:14:48;;;;;;;5.23;3.30;;;13.10;99.90;;;;;;4887872;29;20210;-74
2022/04/10 11:17:26;;;;;;;11.23;5.17;;;13.10;99.90;;;;;;4887149;29;20687;-77
2022/04/10 11:19:58;;;;;;;8.87;4.33;;;13.10;99.90;;;;;;4888752;29;20964;-77
2022/04/10 11:22:34;;;;;;;4.13;2.83;;;12.90;99.90;;;;;;4881415;29;20677;-80
2022/04/10 11:25:08;;;;;;;6.93;2.77;;;12.50;99.90;;;;;;4890230;29;20217;-82
2022/04/10 11:27:53;;;;;;;5.43;3.10;;;12.30;99.90;;;;;;4888563;29;20207;-79
2022/04/10 11:30:27;;;;;;;5.73;3.13;;;12.40;99.90;;;;;;4883366;29;20595;-80
2022/04/10 11:33:00;;;;;;;6.80;3.27;;;12.60;99.90;;;;;;4889987;29;20200;-83
2022/04/10 11:35:33;;;;;;;5.77;2.90;;;13.10;99.90;;;;;;4923013;29;20651;-78
2022/04/10 11:38:15;;;;;;;6.60;2.90;;;13.20;99.90;;;;;;4896582;29;20248;-80
2022/04/10 11:40:50;;;;;;;4.13;2.60;;;13.30;99.90;;;;;;4899787;29;20196;-79
2022/04/10 11:43:21;;;;;;;7.90;4.60;;;13.70;99.90;;;;;;4895395;29;20297;-74
2022/04/10 11:45:50;;;;;;;5.13;2.80;;;14.00;99.90;;;;;;4891680;29;20275;-77
2022/04/10 11:48:17;;;;;;;5.70;2.60;;;14.10;99.90;;;;;;4900722;29;20227;-73
2022/04/10 11:50:44;;;;;;;4.40;2.20;;;14.20;99.90;;;;;;4891937;29;20768;-75
2022/04/10 11:53:17;;;;;;;5.53;2.67;;;13.60;99.90;;;;;;4891787;29;20204;-76
2022/04/10 11:55:45;;;;;;;4.43;2.80;;;13.60;99.90;;;;;;4896174;29;20215;-73
2022/04/10 11:58:16;;;;;;;4.67;2.63;;;13.50;99.90;;;;;;4891884;29;20239;-75
2022/04/10 12:00:57;;;;;;;4.77;2.53;;;13.00;99.90;;;;;;4896257;29;20489;-78
2022/04/10 12:03:27;;;;;;;3.93;2.60;;;13.30;99.90;;;;;;4896148;29;20243;-76
2022/04/10 12:05:55;;;;;;;2.93;2.50;;;13.30;99.90;;;;;;4896753;29;20213;-76
2022/04/10 12:08:23;;;;;;;6.00;2.97;;;13.10;99.90;;;;;;4894576;29;20231;-76
2022/04/10 12:10:53;;;;;;;5.57;2.50;;;13.20;99.90;;;;;;4896094;29;20250;-78
2022/04/10 12:13:26;;;;;;;4.53;2.77;;;13.20;99.90;;;;;;4897104;29;20209;-74
2022/04/10 12:16:00;;;;;;;6.77;3.00;;;13.20;99.90;;;;;;4895602;29;20439;-75
2022/04/10 12:18:27;;;;;;;5.73;3.20;;;12.90;99.90;;;;;;4896323;29;20650;-82
2022/04/10 12:21:01;;;;;;;4.73;3.03;;;12.90;99.90;;;;;;4896234;29;20219;-76
2022/04/10 12:23:28;;;;;;;4.47;3.10;;;12.80;99.90;;;;;;4897369;29;20548;-77
2022/04/10 12:25:57;;;;;;;4.53;3.00;;;12.80;99.90;;;;;;4896053;29;20198;-81
2022/04/10 12:28:25;;;;;;;4.40;2.80;;;12.30;99.90;;;;;;4894744;29;20585;-81
2022/04/10 12:30:53;;;;;;;5.97;2.90;;;12.20;99.90;;;;;;4896196;29;20216;-79
2022/04/10 12:33:21;;;;;;;3.70;2.67;;;12.20;99.90;;;;;;4894891;29;20676;-79
2022/04/10 12:35:48;;;;;;;3.97;2.57;;;12.00;99.90;;;;;;4896552;29;20212;-79
2022/04/10 12:38:16;;;;;;;5.53;3.10;;;11.70;99.90;;;;;;4893690;29;20656;-74
2022/04/10 12:40:43;;;;;;;5.67;2.63;;;11.60;99.90;;;;;;4910507;29;20290;-73
2022/04/10 12:43:12;;;;;;;4.43;2.70;;;11.20;99.90;;;;;;4894858;29;20216;-72
2022/04/10 12:45:41;;;;;;;7.13;2.67;;;11.20;99.90;;;;;;4893940;29;20287;-73
2022/04/10 12:48:25;;;;;;;6.67;2.73;;;11.40;99.90;;;;;;4893444;29;20212;-70
2022/04/10 12:51:08;;;;;;;4.37;2.40;;;11.50;99.90;;;;;;4895046;29;20259;-73
2022/04/10 12:53:36;;;;;;;4.67;2.60;;;12.00;99.90;;;;;;4895395;29;20219;-71
2022/04/10 12:56:04;;;;;;;3.33;2.40;;;12.30;99.90;;;;;;4895421;29;20215;-78
2022/04/10 12:58:47;;;;;;;3.57;2.33;;;12.50;99.90;;;;;;4892324;29;20228;-74
2022/04/10 13:01:50;;;;;;;5.23;2.70;;;12.40;99.90;;;;;;4890245;29;20227;-75
2022/04/10 13:04:28;;;;;;;4.23;2.90;;;12.40;99.90;;;;;;4877475;29;20200;-75
2022/04/10 13:06:55;;;;;;;5.13;2.60;;;12.10;99.90;;;;;;4888288;29;20196;-74